createdAt,value
2022-12-08T00:01:35.109Z,101086.03
2022-12-08T00:04:04.451Z,101078.91
2022-12-08T00:06:59.269Z,101083.50
2022-12-08T00:09:42.165Z,101079.91
2022-12-08T00:12:13.046Z,101068.59
2022-12-08T00:14:45.522Z,101073.81
2022-12-08T00:17:15.442Z,101065.81
2022-12-08T00:19:44.089Z,101062.13
2022-12-08T00:22:13.364Z,101058.44
2022-12-08T00:24:44.181Z,101056.63
2022-12-08T00:27:13.590Z,101055.88
2022-12-08T00:29:43.716Z,101050.06
2022-12-08T00:32:11.478Z,101045.22
2022-12-08T00:34:38.962Z,101042.78
2022-12-08T00:37:06.480Z,101035.31
2022-12-08T00:39:33.700Z,101032.00
2022-12-08T00:42:13.188Z,101031.84
2022-12-08T00:44:42.523Z,101030.78
2022-12-08T00:47:10.749Z,101033.50
2022-12-08T00:49:38.283Z,101044.22
2022-12-08T00:52:05.578Z,101048.28
2022-12-08T00:54:32.834Z,101053.72
2022-12-08T00:57:00.039Z,101049.03
2022-12-08T00:59:27.454Z,101033.34
2022-12-08T01:01:54.830Z,101046.06
2022-12-08T01:04:22.224Z,101030.88
2022-12-08T01:06:49.826Z,101034.19
2022-12-08T01:09:18.390Z,101037.34
2022-12-08T01:11:46.900Z,101038.53
2022-12-08T01:14:14.633Z,101035.81
2022-12-08T01:16:42.614Z,101035.34
2022-12-08T01:19:13.934Z,101030.59
2022-12-08T01:21:42.608Z,101040.00
2022-12-08T01:24:14.801Z,101035.72
2022-12-08T01:26:42.473Z,101025.22
2022-12-08T01:29:10.808Z,101016.84
2022-12-08T01:31:39.208Z,101017.81
2022-12-08T01:34:07.493Z,101010.09
2022-12-08T01:36:39.022Z,101012.72
2022-12-08T01:39:11.010Z,101016.41
2022-12-08T01:41:38.853Z,101013.28
2022-12-08T01:44:09.434Z,101007.00
2022-12-08T01:46:42.210Z,101012.72
2022-12-08T01:49:15.675Z,101008.63
2022-12-08T01:52:08.103Z,101009.34
2022-12-08T01:54:42.338Z,101003.97
2022-12-08T01:57:38.843Z,101004.88
2022-12-08T02:00:10.125Z,100999.97
2022-12-08T02:02:50.481Z,101003.13
2022-12-08T02:05:21.203Z,101000.34
2022-12-08T02:07:49.557Z,100995.78
2022-12-08T02:10:21.380Z,100991.09
2022-12-08T02:12:52.118Z,100994.47
2022-12-08T02:15:23.269Z,100995.28
2022-12-08T02:18:09.496Z,100995.84
2022-12-08T02:20:51.708Z,100988.88
2022-12-08T02:23:35.647Z,100982.28
2022-12-08T02:26:30.534Z,100978.66
2022-12-08T02:29:00.728Z,100979.13
2022-12-08T02:31:46.895Z,100977.22
2022-12-08T02:34:39.686Z,100970.16
2022-12-08T02:37:16.704Z,100976.09
2022-12-08T02:40:02.747Z,100966.94
2022-12-08T02:42:47.220Z,100964.03
2022-12-08T02:45:25.706Z,100970.72
2022-12-08T02:47:54.313Z,100967.34
2022-12-08T02:50:21.845Z,100960.09
2022-12-08T02:52:49.368Z,100958.56
2022-12-08T02:55:22.506Z,100960.31
2022-12-08T02:57:58.600Z,100960.41
2022-12-08T03:00:29.720Z,100957.00
2022-12-08T03:03:16.312Z,100953.84
2022-12-08T03:06:07.012Z,100954.97
2022-12-08T03:08:37.283Z,100959.47
2022-12-08T03:11:37.172Z,100953.66
2022-12-08T03:14:09.077Z,100946.81
2022-12-08T03:16:40.488Z,100945.13
2022-12-08T03:19:21.762Z,100934.81
2022-12-08T03:21:53.670Z,100935.63
2022-12-08T03:24:23.395Z,100925.88
2022-12-08T03:27:03.806Z,100916.59
2022-12-08T03:29:32.669Z,100913.16
2022-12-08T03:32:33.910Z,100912.53
2022-12-08T03:35:09.420Z,100910.63
2022-12-08T03:37:38.623Z,100905.63
2022-12-08T03:40:09.166Z,100901.28
2022-12-08T03:42:36.820Z,100903.28
2022-12-08T03:45:05.212Z,100895.50
2022-12-08T03:47:33.131Z,100900.53
2022-12-08T03:50:00.839Z,100894.44
2022-12-08T03:52:28.392Z,100891.88
2022-12-08T03:54:55.924Z,100881.91
2022-12-08T03:57:23.244Z,100890.38
2022-12-08T03:59:50.640Z,100888.50
2022-12-08T04:02:18.000Z,100886.00
2022-12-08T04:04:45.394Z,100880.22
2022-12-08T04:07:12.772Z,100876.84
2022-12-08T04:09:41.657Z,100876.75
2022-12-08T04:12:09.652Z,100881.72
2022-12-08T04:14:37.114Z,100879.47
2022-12-08T04:17:04.646Z,100883.16
2022-12-08T04:19:32.094Z,100886.31
2022-12-08T04:21:59.570Z,100881.25
2022-12-08T04:24:26.986Z,100880.50
2022-12-08T04:26:54.469Z,100874.22
2022-12-08T04:29:21.942Z,100865.94
2022-12-08T04:31:49.343Z,100861.16
2022-12-08T04:34:16.682Z,100854.25
2022-12-08T04:36:44.025Z,100852.22
2022-12-08T04:39:11.462Z,100851.69
2022-12-08T04:41:38.873Z,100846.41
2022-12-08T04:44:06.067Z,100842.59
2022-12-08T04:46:33.330Z,100838.75
2022-12-08T04:49:00.578Z,100838.75
2022-12-08T04:51:27.960Z,100837.88
2022-12-08T04:53:55.307Z,100830.75
2022-12-08T04:56:22.685Z,100829.72
2022-12-08T04:58:49.955Z,100829.50
2022-12-08T05:01:17.221Z,100838.41
2022-12-08T05:03:44.406Z,100832.22
2022-12-08T05:06:14.915Z,100826.56
2022-12-08T05:08:43.485Z,100825.13
2022-12-08T05:11:12.735Z,100830.41
2022-12-08T05:13:40.365Z,100827.81
2022-12-08T05:16:10.834Z,100828.09
2022-12-08T05:18:39.862Z,100826.28
2022-12-08T05:21:07.841Z,100816.53
2022-12-08T05:23:36.155Z,100823.19
2022-12-08T05:26:03.696Z,100830.75
2022-12-08T05:28:46.343Z,100827.63
2022-12-08T05:31:15.279Z,100820.47
2022-12-08T05:33:43.942Z,100822.06
2022-12-08T05:36:14.890Z,100819.28
2022-12-08T05:38:43.313Z,100813.97
2022-12-08T05:41:17.004Z,100814.28
2022-12-08T05:43:44.950Z,100819.97
2022-12-08T05:46:13.312Z,100818.63
2022-12-08T05:48:41.283Z,100808.13
2022-12-08T05:51:18.320Z,100812.31
2022-12-08T05:53:46.935Z,100815.69
2022-12-08T05:56:14.726Z,100808.47
2022-12-08T05:58:42.948Z,100807.72
2022-12-08T06:01:28.078Z,100805.41
2022-12-08T06:03:57.089Z,100808.34
2022-12-08T06:06:24.898Z,100802.94
2022-12-08T06:08:53.124Z,100798.75
2022-12-08T06:11:25.461Z,100791.56
2022-12-08T06:13:53.868Z,100789.59
2022-12-08T06:16:21.312Z,100790.03
2022-12-08T06:18:49.655Z,100792.47
2022-12-08T06:21:17.672Z,100794.41
2022-12-08T06:23:48.885Z,100793.69
2022-12-08T06:26:17.497Z,100777.59
2022-12-08T06:28:45.409Z,100792.66
2022-12-08T06:31:18.791Z,100785.94
2022-12-08T06:33:47.040Z,100789.28
2022-12-08T06:36:16.972Z,100794.78
2022-12-08T06:38:44.660Z,100790.28
2022-12-08T06:41:13.420Z,100786.34
2022-12-08T06:43:41.235Z,100785.03
2022-12-08T06:46:13.929Z,100772.69
2022-12-08T06:48:42.812Z,100777.44
2022-12-08T06:51:17.219Z,100776.25
2022-12-08T06:53:46.563Z,100770.16
2022-12-08T06:56:16.241Z,100769.28
2022-12-08T06:58:49.018Z,100770.56
2022-12-08T07:01:20.064Z,100772.13
2022-12-08T07:03:47.971Z,100771.97
2022-12-08T07:06:18.664Z,100767.69
2022-12-08T07:08:46.110Z,100766.69
2022-12-08T07:11:19.653Z,100760.66
2022-12-08T07:13:48.977Z,100760.00
2022-12-08T07:16:16.704Z,100750.00
2022-12-08T07:18:44.341Z,100755.31
2022-12-08T07:21:14.936Z,100758.81
2022-12-08T07:23:42.995Z,100765.47
2022-12-08T07:26:12.209Z,100762.84
2022-12-08T07:28:41.601Z,100763.78
2022-12-08T07:31:18.147Z,100758.13
2022-12-08T07:33:45.921Z,100762.28
2022-12-08T07:36:13.589Z,100757.25
2022-12-08T07:38:41.277Z,100761.34
2022-12-08T07:41:19.402Z,100758.69
2022-12-08T07:43:47.037Z,100758.94
2022-12-08T07:46:15.928Z,100756.53
2022-12-08T07:48:43.894Z,100760.69
2022-12-08T07:51:14.132Z,100762.59
2022-12-08T07:53:51.574Z,100764.06
2022-12-08T07:56:22.135Z,100761.13
2022-12-08T07:58:49.577Z,100758.31
2022-12-08T08:01:21.437Z,100760.72
2022-12-08T08:03:49.699Z,100759.13
2022-12-08T08:06:17.215Z,100762.59
2022-12-08T08:08:45.131Z,100756.56
2022-12-08T08:11:17.397Z,100762.13
2022-12-08T08:13:49.755Z,100765.66
2022-12-08T08:16:18.346Z,100758.59
2022-12-08T08:18:51.174Z,100756.53
2022-12-08T08:24:08.855Z,100747.03
2022-12-08T08:26:37.360Z,100745.94
2022-12-08T08:29:05.302Z,100739.56
2022-12-08T08:31:32.996Z,100737.22
2022-12-08T08:34:05.107Z,100730.28
2022-12-08T08:36:33.934Z,100716.47
2022-12-08T08:39:01.415Z,100718.13
2022-12-08T08:41:31.631Z,100731.34
2022-12-08T08:43:59.203Z,100733.31
2022-12-08T08:46:27.522Z,100732.81
2022-12-08T08:48:55.081Z,100722.63
2022-12-08T08:51:23.710Z,100720.81
2022-12-08T08:53:51.187Z,100719.41
2022-12-08T08:56:20.333Z,100726.75
2022-12-08T08:58:49.719Z,100717.44
2022-12-08T09:01:25.715Z,100712.88
2022-12-08T09:03:56.496Z,100715.66
2022-12-08T09:06:24.768Z,100715.25
2022-12-08T09:08:54.629Z,100702.47
2022-12-08T09:11:26.262Z,100712.06
2022-12-08T09:13:54.853Z,100716.53
2022-12-08T09:16:23.045Z,100719.13
2022-12-08T09:18:51.220Z,100717.00
2022-12-08T09:21:22.613Z,100712.56
2022-12-08T09:23:51.867Z,100718.22
2022-12-08T09:26:22.525Z,100714.03
2022-12-08T09:28:51.681Z,100709.22
2022-12-08T09:31:21.257Z,100704.56
2022-12-08T09:33:51.677Z,100701.53
2022-12-08T09:36:19.960Z,100694.69
2022-12-08T09:38:49.273Z,100676.41
2022-12-08T09:41:37.862Z,100677.69
2022-12-08T09:44:26.937Z,100682.28
2022-12-08T09:46:59.058Z,100684.13
2022-12-08T09:49:40.196Z,100672.31
2022-12-08T09:52:18.455Z,100673.91
2022-12-08T09:54:46.025Z,100684.38
2022-12-08T09:57:15.845Z,100695.44
2022-12-08T09:59:52.856Z,100694.34
2022-12-08T10:02:24.261Z,100693.47
2022-12-08T10:04:58.648Z,100690.09
2022-12-08T10:07:40.298Z,100702.16
2022-12-08T10:10:24.225Z,100697.00
2022-12-08T10:13:07.347Z,100694.13
2022-12-08T10:15:44.349Z,100701.78
2022-12-08T10:18:20.791Z,100701.47
2022-12-08T10:20:50.781Z,100691.69
2022-12-08T10:23:35.824Z,100695.75
2022-12-08T10:26:11.987Z,100694.25
2022-12-08T10:28:44.875Z,100692.66
2022-12-08T10:31:25.010Z,100688.03
2022-12-08T10:34:12.039Z,100675.19
2022-12-08T10:36:49.463Z,100666.81
2022-12-08T10:39:43.950Z,100672.25
2022-12-08T10:42:18.707Z,100666.75
2022-12-08T10:44:57.872Z,100661.16
2022-12-08T10:47:30.461Z,100657.56
2022-12-08T10:50:17.479Z,100656.81
2022-12-08T10:52:45.525Z,100664.53
2022-12-08T10:55:19.594Z,100658.84
2022-12-08T10:57:55.096Z,100663.88
2022-12-08T11:00:28.760Z,100652.50
2022-12-08T11:03:05.135Z,100641.47
2022-12-08T11:05:35.584Z,100641.97
2022-12-08T11:08:05.320Z,100648.19
2022-12-08T11:10:53.122Z,100640.28
2022-12-08T11:13:27.784Z,100641.66
2022-12-08T11:15:56.991Z,100638.72
2022-12-08T11:18:40.695Z,100628.56
2022-12-08T11:21:15.573Z,100624.34
2022-12-08T11:23:48.090Z,100624.00
2022-12-08T11:26:31.957Z,100621.03
2022-12-08T11:28:59.583Z,100620.81
2022-12-08T11:31:29.657Z,100621.31
2022-12-08T11:33:57.483Z,100621.91
2022-12-08T11:36:27.927Z,100622.53
2022-12-08T11:39:02.913Z,100619.50
2022-12-08T11:41:41.060Z,100617.44
2022-12-08T11:44:29.180Z,100608.09
2022-12-08T11:47:02.749Z,100595.78
2022-12-08T11:49:37.809Z,100596.38
2022-12-08T11:52:29.353Z,100592.00
2022-12-08T11:55:22.391Z,100585.28
2022-12-08T11:57:52.004Z,100584.94
2022-12-08T12:00:19.845Z,100577.69
2022-12-08T12:02:55.372Z,100571.50
2022-12-08T12:08:58.410Z,100577.31
2022-12-08T12:12:19.362Z,100576.06
2022-12-08T12:14:57.249Z,100581.66
2022-12-08T12:17:39.937Z,100583.53
2022-12-08T12:20:32.972Z,100576.69
2022-12-08T12:23:11.416Z,100573.69
2022-12-08T12:25:51.172Z,100567.38
2022-12-08T12:28:22.688Z,100570.81
2022-12-08T12:31:06.559Z,100561.75
2022-12-08T12:33:36.180Z,100563.13
2022-12-08T12:36:07.856Z,100563.56
2022-12-08T12:38:57.634Z,100557.19
2022-12-08T12:41:33.034Z,100559.75
2022-12-08T12:44:13.141Z,100551.00
2022-12-08T12:46:48.522Z,100540.47
2022-12-08T12:49:40.704Z,100535.56
2022-12-08T12:52:18.129Z,100523.78
2022-12-08T12:55:05.617Z,100521.97
2022-12-08T12:57:38.680Z,100522.19
2022-12-08T13:00:09.381Z,100515.41
2022-12-08T13:02:49.184Z,100523.66
2022-12-08T13:05:29.271Z,100518.66
2022-12-08T13:08:05.177Z,100522.78
2022-12-08T13:10:41.340Z,100521.03
2022-12-08T13:13:16.516Z,100514.66
2022-12-08T13:15:52.939Z,100508.84
2022-12-08T13:18:25.177Z,100511.09
2022-12-08T13:21:11.162Z,100506.75
2022-12-08T13:23:38.620Z,100510.22
2022-12-08T13:26:09.393Z,100510.25
2022-12-08T13:29:17.888Z,100493.91
2022-12-08T13:31:51.048Z,100505.19
2022-12-08T13:34:29.281Z,100499.97
2022-12-08T13:37:11.876Z,100496.41
2022-12-08T13:39:39.517Z,100491.47
2022-12-08T13:42:12.838Z,100476.06
2022-12-08T13:46:12.238Z,100471.66
2022-12-08T13:48:26.669Z,100471.16
2022-12-08T13:57:10.560Z,100442.06
2022-12-08T13:59:45.003Z,100445.78
2022-12-08T14:02:46.873Z,100443.00
2022-12-08T14:05:40.621Z,100431.38
2022-12-08T14:08:10.109Z,100425.72
2022-12-08T14:10:37.778Z,100420.38
2022-12-08T14:13:06.700Z,100421.66
2022-12-08T14:15:38.243Z,100420.00
2022-12-08T14:18:21.380Z,100411.28
2022-12-08T14:21:22.393Z,100408.84
2022-12-08T14:23:49.881Z,100409.16
2022-12-08T14:26:18.068Z,100413.75
2022-12-08T14:28:45.608Z,100406.22
2022-12-08T14:31:14.727Z,100412.38
2022-12-08T14:33:43.214Z,100405.19
2022-12-08T14:36:12.411Z,100407.00
2022-12-08T14:38:40.160Z,100403.44
2022-12-08T14:41:10.096Z,100400.75
2022-12-08T14:43:37.838Z,100394.53
2022-12-08T14:46:20.397Z,100406.63
2022-12-08T14:48:48.180Z,100395.22
2022-12-08T14:51:21.686Z,100402.19
2022-12-08T14:53:58.790Z,100395.31
2022-12-08T14:56:26.385Z,100393.53
2022-12-08T14:59:04.949Z,100388.38
2022-12-08T15:01:32.649Z,100395.94
2022-12-08T15:04:09.240Z,100388.56
2022-12-08T15:06:37.144Z,100389.25
2022-12-08T15:09:17.910Z,100388.91
2022-12-08T15:11:45.460Z,100380.34
2022-12-08T15:14:32.973Z,100376.34
2022-12-08T15:17:00.971Z,100379.13
2022-12-08T15:19:34.086Z,100378.44
2022-12-08T15:22:23.075Z,100379.34
2022-12-08T15:24:50.641Z,100382.84
2022-12-08T15:27:19.377Z,100384.66
2022-12-08T15:29:48.013Z,100377.56
2022-12-08T15:32:21.518Z,100379.94
2022-12-08T15:34:49.316Z,100379.03
2022-12-08T15:37:24.789Z,100384.28
2022-12-08T15:39:53.181Z,100385.72
2022-12-08T15:42:20.638Z,100387.75
2022-12-08T15:44:48.056Z,100386.00
2022-12-08T15:47:20.042Z,100388.28
2022-12-08T15:49:49.664Z,100390.94
2022-12-08T15:52:20.402Z,100381.97
2022-12-08T15:54:49.144Z,100374.84
2022-12-08T15:58:04.097Z,100375.72
2022-12-08T16:09:23.763Z,100359.94
2022-12-08T16:12:10.647Z,100365.97
2022-12-08T16:17:28.034Z,100360.53
2022-12-08T16:19:55.725Z,100364.88
2022-12-08T16:25:18.899Z,100363.56
2022-12-08T16:30:37.261Z,100363.06
2022-12-08T16:33:05.183Z,100370.84
2022-12-08T16:35:33.034Z,100369.63
2022-12-08T16:38:00.652Z,100368.75
2022-12-08T16:40:28.153Z,100364.38
2022-12-08T16:42:55.417Z,100364.13
2022-12-08T16:45:24.315Z,100366.63
2022-12-08T16:47:54.635Z,100365.50
2022-12-08T16:50:24.971Z,100367.94
2022-12-08T16:53:01.586Z,100366.28
2022-12-08T16:55:29.218Z,100361.75
2022-12-08T16:57:56.880Z,100366.72
2022-12-08T17:00:26.423Z,100354.28
2022-12-08T17:02:54.926Z,100356.50
2022-12-08T17:05:25.148Z,100350.81
2022-12-08T17:07:54.093Z,100352.03
2022-12-08T17:10:25.305Z,100345.88
2022-12-08T17:12:53.272Z,100343.88
2022-12-08T17:15:23.818Z,100338.44
2022-12-08T17:17:52.214Z,100339.81
2022-12-08T17:20:22.578Z,100346.69
2022-12-08T17:22:53.985Z,100348.56
2022-12-08T17:25:21.619Z,100345.44
2022-12-08T17:27:49.110Z,100340.19
2022-12-08T17:30:17.885Z,100342.72
2022-12-08T17:32:45.366Z,100339.47
2022-12-08T17:35:13.509Z,100342.13
2022-12-08T17:37:41.077Z,100342.91
2022-12-08T17:40:09.378Z,100345.59
2022-12-08T17:42:38.116Z,100338.94
2022-12-08T17:45:07.971Z,100340.38
2022-12-08T17:47:36.891Z,100339.19
2022-12-08T17:50:06.752Z,100346.16
2022-12-08T17:52:34.655Z,100341.94
2022-12-08T17:55:02.195Z,100331.84
2022-12-08T17:57:30.947Z,100345.44
2022-12-08T17:59:58.495Z,100336.81
2022-12-08T18:02:26.242Z,100338.38
2022-12-08T18:04:53.921Z,100349.41
2022-12-08T18:07:21.419Z,100343.50
2022-12-08T18:09:48.635Z,100339.91
2022-12-08T18:12:20.699Z,100340.59
2022-12-08T18:14:52.384Z,100346.00
2022-12-08T18:17:20.674Z,100348.38
2022-12-08T18:19:48.453Z,100342.03
2022-12-08T18:22:16.185Z,100349.47
2022-12-08T18:24:44.150Z,100352.28
2022-12-08T18:27:11.555Z,100345.06
2022-12-08T18:29:39.168Z,100347.94
2022-12-08T18:32:08.412Z,100338.44
2022-12-08T18:34:36.105Z,100341.81
2022-12-08T18:37:03.907Z,100343.13
2022-12-08T18:39:33.230Z,100334.31
2022-12-08T18:42:21.934Z,100328.50
2022-12-08T18:44:56.307Z,100330.75
2022-12-08T18:47:24.270Z,100337.19
2022-12-08T18:49:51.826Z,100327.72
2022-12-08T18:52:26.913Z,100331.69
2022-12-08T18:55:06.420Z,100329.78
2022-12-08T18:57:37.519Z,100327.94
2022-12-08T19:00:09.343Z,100327.97
2022-12-08T19:02:38.918Z,100322.88
2022-12-08T19:05:08.105Z,100328.97
2022-12-08T19:07:35.932Z,100322.50
2022-12-08T19:10:05.899Z,100316.66
2022-12-08T19:12:33.885Z,100307.06
2022-12-08T19:15:01.428Z,100309.28
2022-12-08T19:17:29.822Z,100299.91
2022-12-08T19:19:57.314Z,100310.16
2022-12-08T19:22:24.731Z,100303.16
2022-12-08T19:24:51.953Z,100307.22
2022-12-08T19:27:19.739Z,100306.44
2022-12-08T19:29:47.321Z,100305.69
2022-12-08T19:32:14.822Z,100306.28
2022-12-08T19:34:46.838Z,100306.00
2022-12-08T19:37:14.351Z,100297.91
2022-12-08T19:40:00.592Z,100297.22
2022-12-08T19:42:46.704Z,100298.97
2022-12-08T19:45:17.881Z,100292.22
2022-12-08T19:47:45.685Z,100282.09
2022-12-08T19:50:33.874Z,100293.09
2022-12-08T19:53:02.271Z,100285.50
2022-12-08T19:55:29.758Z,100291.56
2022-12-08T19:57:57.406Z,100300.16
2022-12-08T20:00:24.805Z,100305.03
2022-12-08T20:02:52.432Z,100301.75
2022-12-08T20:05:20.890Z,100300.81
2022-12-08T20:07:48.571Z,100296.34
2022-12-08T20:10:19.718Z,100298.47
2022-12-08T20:12:47.314Z,100295.84
2022-12-08T20:15:15.016Z,100297.88
2022-12-08T20:17:43.045Z,100301.13
2022-12-08T20:20:12.940Z,100301.69
2022-12-08T20:22:40.795Z,100298.88
2022-12-08T20:25:12.838Z,100307.56
2022-12-08T20:27:41.761Z,100289.88
2022-12-08T20:30:15.068Z,100293.97
2022-12-08T20:32:45.453Z,100292.66
2022-12-08T20:35:13.202Z,100280.78
2022-12-08T20:37:40.654Z,100293.97
2022-12-08T20:40:08.722Z,100296.69
2022-12-08T20:42:36.332Z,100296.69
2022-12-08T20:45:06.582Z,100295.72
2022-12-08T20:47:34.950Z,100300.00
2022-12-08T20:50:03.730Z,100293.56
2022-12-08T20:52:32.238Z,100289.34
2022-12-08T20:54:59.705Z,100289.72
2022-12-08T20:57:27.525Z,100294.06
2022-12-08T20:59:55.008Z,100295.50
2022-12-08T21:02:22.872Z,100294.59
2022-12-08T21:04:50.444Z,100291.88
2022-12-08T21:07:18.099Z,100292.78
2022-12-08T21:09:45.891Z,100298.63
2022-12-08T21:12:13.623Z,100294.13
2022-12-08T21:14:41.018Z,100293.34
2022-12-08T21:17:08.420Z,100289.53
2022-12-08T21:19:36.004Z,100304.81
2022-12-08T21:22:03.457Z,100284.13
2022-12-08T21:24:34.262Z,100289.34
2022-12-08T21:27:02.657Z,100284.25
2022-12-08T21:29:30.203Z,100289.38
2022-12-08T21:31:58.765Z,100283.50
2022-12-08T21:34:31.868Z,100283.50
2022-12-08T21:37:00.655Z,100288.38
2022-12-08T21:39:29.840Z,100289.88
2022-12-08T21:42:16.288Z,100286.72
2022-12-08T21:44:44.149Z,100283.16
2022-12-08T21:47:12.747Z,100292.00
2022-12-08T21:49:40.472Z,100295.84
2022-12-08T21:52:07.893Z,100287.59
2022-12-08T21:54:36.422Z,100282.63
2022-12-08T21:57:04.147Z,100286.00
2022-12-08T21:59:31.847Z,100285.34
2022-12-08T22:01:59.504Z,100278.31
2022-12-08T22:04:27.515Z,100278.13
2022-12-08T22:06:55.129Z,100279.00
2022-12-08T22:09:22.804Z,100275.03
2022-12-08T22:11:50.551Z,100275.47
2022-12-08T22:14:18.209Z,100280.59
2022-12-08T22:16:45.585Z,100276.31
2022-12-08T22:19:13.520Z,100272.81
2022-12-08T22:21:41.595Z,100272.69
2022-12-08T22:24:09.489Z,100277.38
2022-12-08T22:26:37.093Z,100265.16
2022-12-08T22:29:04.524Z,100269.66
2022-12-08T22:31:32.207Z,100255.84
2022-12-08T22:33:59.964Z,100264.34
2022-12-08T22:36:28.450Z,100257.38
2022-12-08T22:38:56.540Z,100255.59
2022-12-08T22:41:24.075Z,100265.06
2022-12-08T22:43:51.724Z,100260.75
2022-12-08T22:46:24.451Z,100250.38
2022-12-08T22:48:54.153Z,100264.25
2022-12-08T22:51:22.073Z,100255.72
2022-12-08T22:53:50.502Z,100258.44
2022-12-08T22:56:19.704Z,100252.34
2022-12-08T22:58:47.408Z,100254.66
2022-12-08T23:01:34.115Z,100246.06
2022-12-08T23:04:02.115Z,100254.88
2022-12-08T23:06:30.500Z,100257.72
2022-12-08T23:08:58.541Z,100252.78
2022-12-08T23:11:29.768Z,100254.41
2022-12-08T23:14:01.078Z,100258.94
2022-12-08T23:16:30.768Z,100252.81
2022-12-08T23:18:59.166Z,100264.75
2022-12-08T23:21:27.053Z,100249.94
2022-12-08T23:23:54.727Z,100254.28
2022-12-08T23:26:24.811Z,100257.56
2022-12-08T23:28:52.823Z,100259.31
2022-12-08T23:31:21.496Z,100253.09
2022-12-08T23:33:49.313Z,100251.81
2022-12-08T23:36:18.376Z,100262.38
2022-12-08T23:38:46.579Z,100240.13
2022-12-08T23:41:15.552Z,100246.03
2022-12-08T23:43:45.502Z,100244.81
2022-12-08T23:46:14.408Z,100241.41
2022-12-08T23:48:42.179Z,100247.53
2022-12-08T23:51:10.530Z,100231.38
2022-12-08T23:53:38.204Z,100245.19
2022-12-08T23:56:08.986Z,100241.16
2022-12-08T23:58:37.549Z,100235.16
